sensor_id;sensor_type;location;lat;lon;timestamp;pressure;altitude;pressure_sealevel;temperature;humidity
16544;BME280;8384;47.996;7.786;2023-01-16T00:01:49;97734.56;;;4.69;58.00
16544;BME280;8384;47.996;7.786;2023-01-16T00:04:14;97720.22;;;4.51;59.46
16544;BME280;8384;47.996;7.786;2023-01-16T00:06:40;97723.50;;;4.70;58.94
16544;BME280;8384;47.996;7.786;2023-01-16T00:09:06;97713.03;;;4.79;58.76
16544;BME280;8384;47.996;7.786;2023-01-16T00:11:31;97715.38;;;4.70;59.57
16544;BME280;8384;47.996;7.786;2023-01-16T00:13:56;97694.06;;;4.74;58.66
16544;BME280;8384;47.996;7.786;2023-01-16T00:16:23;97698.72;;;4.61;59.80
16544;BME280;8384;47.996;7.786;2023-01-16T00:18:48;97675.03;;;4.69;58.43
16544;BME280;8384;47.996;7.786;2023-01-16T00:21:14;97681.59;;;4.73;59.20
16544;BME280;8384;47.996;7.786;2023-01-16T00:23:39;97676.31;;;4.66;59.35
16544;BME280;8384;47.996;7.786;2023-01-16T00:26:06;97672.88;;;4.71;59.15
16544;BME280;8384;47.996;7.786;2023-01-16T00:28:31;97662.78;;;4.66;59.34
16544;BME280;8384;47.996;7.786;2023-01-16T00:30:57;97680.66;;;4.67;59.21
16544;BME280;8384;47.996;7.786;2023-01-16T00:33:23;97666.03;;;4.63;59.76
16544;BME280;8384;47.996;7.786;2023-01-16T00:35:48;97645.66;;;4.60;60.06
16544;BME280;8384;47.996;7.786;2023-01-16T00:38:13;97637.44;;;4.72;60.15
16544;BME280;8384;47.996;7.786;2023-01-16T00:40:39;97639.84;;;4.69;59.60
16544;BME280;8384;47.996;7.786;2023-01-16T00:43:04;97626.53;;;4.67;59.82
16544;BME280;8384;47.996;7.786;2023-01-16T00:45:29;97614.34;;;4.87;59.16
16544;BME280;8384;47.996;7.786;2023-01-16T00:47:55;97624.41;;;4.69;59.08
16544;BME280;8384;47.996;7.786;2023-01-16T00:50:20;97603.00;;;4.68;59.84
16544;BME280;8384;47.996;7.786;2023-01-16T00:52:45;97613.50;;;4.64;60.38
16544;BME280;8384;47.996;7.786;2023-01-16T00:55:11;97558.16;;;4.32;59.75
16544;BME280;8384;47.996;7.786;2023-01-16T00:57:36;97587.19;;;4.59;60.04
16544;BME280;8384;47.996;7.786;2023-01-16T01:00:02;97597.38;;;4.52;60.09
16544;BME280;8384;47.996;7.786;2023-01-16T01:02:28;97574.09;;;4.51;60.72
16544;BME280;8384;47.996;7.786;2023-01-16T01:04:53;97584.41;;;4.54;60.16
16544;BME280;8384;47.996;7.786;2023-01-16T01:07:19;97579.09;;;4.82;59.50
16544;BME280;8384;47.996;7.786;2023-01-16T01:09:44;97566.13;;;4.84;59.61
16544;BME280;8384;47.996;7.786;2023-01-16T01:12:09;97511.75;;;4.41;59.11
16544;BME280;8384;47.996;7.786;2023-01-16T01:14:34;97554.59;;;4.71;59.91
16544;BME280;8384;47.996;7.786;2023-01-16T01:17:00;97557.88;;;4.73;60.11
16544;BME280;8384;47.996;7.786;2023-01-16T01:19:25;97532.94;;;4.71;59.87
16544;BME280;8384;47.996;7.786;2023-01-16T01:21:50;97543.31;;;4.79;58.79
16544;BME280;8384;47.996;7.786;2023-01-16T01:24:15;97534.56;;;4.72;59.01
16544;BME280;8384;47.996;7.786;2023-01-16T01:26:41;97531.50;;;4.86;58.81
16544;BME280;8384;47.996;7.786;2023-01-16T01:29:06;97523.44;;;4.96;58.00
16544;BME280;8384;47.996;7.786;2023-01-16T01:31:31;97523.88;;;5.10;57.82
16544;BME280;8384;47.996;7.786;2023-01-16T01:33:57;97504.66;;;5.12;57.50
16544;BME280;8384;47.996;7.786;2023-01-16T01:36:22;97500.66;;;5.19;57.27
16544;BME280;8384;47.996;7.786;2023-01-16T01:38:47;97473.75;;;5.07;57.15
16544;BME280;8384;47.996;7.786;2023-01-16T01:41:15;97482.00;;;5.23;57.85
16544;BME280;8384;47.996;7.786;2023-01-16T01:46:45;97479.22;;;5.18;57.64
16544;BME280;8384;47.996;7.786;2023-01-16T01:49:24;97428.72;;;5.01;56.85
16544;BME280;8384;47.996;7.786;2023-01-16T01:51:54;97430.53;;;5.23;57.49
16544;BME280;8384;47.996;7.786;2023-01-16T01:54:26;97446.22;;;5.21;57.84
16544;BME280;8384;47.996;7.786;2023-01-16T01:57:02;97441.13;;;5.24;58.11
16544;BME280;8384;47.996;7.786;2023-01-16T01:59:33;97433.16;;;5.13;58.03
16544;BME280;8384;47.996;7.786;2023-01-16T02:02:01;97421.06;;;5.25;57.37
16544;BME280;8384;47.996;7.786;2023-01-16T02:04:31;97382.59;;;4.91;57.76
16544;BME280;8384;47.996;7.786;2023-01-16T02:07:01;97406.47;;;5.27;57.90
16544;BME280;8384;47.996;7.786;2023-01-16T02:09:29;97410.72;;;5.17;58.22
16544;BME280;8384;47.996;7.786;2023-01-16T02:12:02;97400.47;;;5.24;57.04
16544;BME280;8384;47.996;7.786;2023-01-16T02:14:31;97389.97;;;5.33;57.61
16544;BME280;8384;47.996;7.786;2023-01-16T02:17:06;97383.00;;;5.43;57.07
16544;BME280;8384;47.996;7.786;2023-01-16T02:23:16;97358.06;;;5.46;56.91
16544;BME280;8384;47.996;7.786;2023-01-16T02:26:12;97352.03;;;5.33;57.41
16544;BME280;8384;47.996;7.786;2023-01-16T02:37:09;97301.38;;;5.39;56.72
16544;BME280;8384;47.996;7.786;2023-01-16T02:45:10;97276.50;;;5.47;56.79
16544;BME280;8384;47.996;7.786;2023-01-16T02:50:28;97266.78;;;5.62;55.75
16544;BME280;8384;47.996;7.786;2023-01-16T02:55:43;97256.19;;;5.50;56.61
16544;BME280;8384;47.996;7.786;2023-01-16T02:58:11;97235.53;;;5.33;56.66
16544;BME280;8384;47.996;7.786;2023-01-16T03:00:37;97238.78;;;5.35;56.85
16544;BME280;8384;47.996;7.786;2023-01-16T03:03:03;97224.41;;;5.35;56.66
16544;BME280;8384;47.996;7.786;2023-01-16T03:05:37;97192.09;;;5.18;56.94
16544;BME280;8384;47.996;7.786;2023-01-16T03:11:24;97196.00;;;5.48;57.06
16544;BME280;8384;47.996;7.786;2023-01-16T03:17:11;97173.84;;;5.61;56.14
16544;BME280;8384;47.996;7.786;2023-01-16T03:20:24;97159.16;;;5.42;56.30
16544;BME280;8384;47.996;7.786;2023-01-16T03:23:00;97143.72;;;5.58;56.64
16544;BME280;8384;47.996;7.786;2023-01-16T03:25:35;97106.28;;;5.29;56.15
16544;BME280;8384;47.996;7.786;2023-01-16T03:28:46;97117.69;;;5.56;56.04
16544;BME280;8384;47.996;7.786;2023-01-16T03:31:24;97122.88;;;5.63;56.13
16544;BME280;8384;47.996;7.786;2023-01-16T03:34:13;97116.09;;;5.55;55.93
16544;BME280;8384;47.996;7.786;2023-01-16T03:36:50;97102.56;;;5.55;56.14
16544;BME280;8384;47.996;7.786;2023-01-16T03:39:23;97089.25;;;5.49;56.03
16544;BME280;8384;47.996;7.786;2023-01-16T03:41:53;97097.94;;;5.71;54.82
16544;BME280;8384;47.996;7.786;2023-01-16T03:44:28;97072.44;;;5.57;55.85
16544;BME280;8384;47.996;7.786;2023-01-16T03:46:56;97051.59;;;5.52;55.32
16544;BME280;8384;47.996;7.786;2023-01-16T03:49:45;97060.53;;;5.79;54.88
16544;BME280;8384;47.996;7.786;2023-01-16T03:52:15;97055.38;;;5.77;55.04
16544;BME280;8384;47.996;7.786;2023-01-16T03:54:48;97020.66;;;5.59;54.48
16544;BME280;8384;47.996;7.786;2023-01-16T03:57:19;97030.44;;;5.70;55.16
16544;BME280;8384;47.996;7.786;2023-01-16T03:59:46;97009.03;;;5.53;55.08
16544;BME280;8384;47.996;7.786;2023-01-16T04:02:18;97009.00;;;5.84;53.92
16544;BME280;8384;47.996;7.786;2023-01-16T04:07:26;96994.94;;;5.46;55.10
16544;BME280;8384;47.996;7.786;2023-01-16T04:09:57;96990.34;;;5.51;54.90
16544;BME280;8384;47.996;7.786;2023-01-16T04:12:29;96960.78;;;5.50;53.45
16544;BME280;8384;47.996;7.786;2023-01-16T04:15:01;96971.09;;;5.58;53.25
16544;BME280;8384;47.996;7.786;2023-01-16T04:17:28;96957.81;;;5.31;53.99
16544;BME280;8384;47.996;7.786;2023-01-16T04:19:54;96923.16;;;5.17;54.02
16544;BME280;8384;47.996;7.786;2023-01-16T04:22:22;96948.34;;;5.07;54.16
16544;BME280;8384;47.996;7.786;2023-01-16T04:24:49;96933.44;;;5.15;53.05
16544;BME280;8384;47.996;7.786;2023-01-16T04:27:16;96939.13;;;5.24;52.75
16544;BME280;8384;47.996;7.786;2023-01-16T04:29:42;96902.84;;;5.04;53.31
16544;BME280;8384;47.996;7.786;2023-01-16T04:32:07;96919.63;;;5.12;53.48
16544;BME280;8384;47.996;7.786;2023-01-16T04:34:32;96908.25;;;4.99;52.92
16544;BME280;8384;47.996;7.786;2023-01-16T04:36:58;96885.25;;;5.02;53.23
16544;BME280;8384;47.996;7.786;2023-01-16T04:39:23;96862.50;;;4.87;52.81
16544;BME280;8384;47.996;7.786;2023-01-16T04:41:49;96855.97;;;5.09;52.23
16544;BME280;8384;47.996;7.786;2023-01-16T04:44:16;96875.78;;;5.15;52.32
16544;BME280;8384;47.996;7.786;2023-01-16T04:46:41;96852.19;;;5.10;52.56
16544;BME280;8384;47.996;7.786;2023-01-16T04:49:07;96838.66;;;5.10;51.95
16544;BME280;8384;47.996;7.786;2023-01-16T04:51:33;96850.56;;;5.04;52.40
16544;BME280;8384;47.996;7.786;2023-01-16T04:53:58;96827.84;;;4.84;52.28
16544;BME280;8384;47.996;7.786;2023-01-16T04:56:24;96806.19;;;4.79;52.36
16544;BME280;8384;47.996;7.786;2023-01-16T04:58:49;96810.22;;;5.07;51.87
16544;BME280;8384;47.996;7.786;2023-01-16T05:01:17;96812.66;;;5.04;51.35
16544;BME280;8384;47.996;7.786;2023-01-16T05:03:42;96787.47;;;5.08;51.43
16544;BME280;8384;47.996;7.786;2023-01-16T05:06:07;96774.78;;;4.93;51.90
16544;BME280;8384;47.996;7.786;2023-01-16T05:08:33;96777.19;;;5.05;51.37
16544;BME280;8384;47.996;7.786;2023-01-16T05:10:58;96780.69;;;5.06;52.26
16544;BME280;8384;47.996;7.786;2023-01-16T05:13:26;96754.72;;;5.05;51.98
16544;BME280;8384;47.996;7.786;2023-01-16T05:15:52;96756.59;;;5.09;51.45
16544;BME280;8384;47.996;7.786;2023-01-16T05:18:17;96740.91;;;5.01;51.89
16544;BME280;8384;47.996;7.786;2023-01-16T05:20:42;96738.22;;;5.01;51.40
16544;BME280;8384;47.996;7.786;2023-01-16T05:23:07;96689.78;;;4.79;51.14
16544;BME280;8384;47.996;7.786;2023-01-16T05:25:35;96712.19;;;5.10;51.08
16544;BME280;8384;47.996;7.786;2023-01-16T05:28:01;96705.16;;;5.04;51.67
16544;BME280;8384;47.996;7.786;2023-01-16T05:30:26;96672.44;;;4.95;51.05
16544;BME280;8384;47.996;7.786;2023-01-16T05:32:51;96690.53;;;5.16;51.33
16544;BME280;8384;47.996;7.786;2023-01-16T05:35:16;96666.44;;;5.04;50.55
16544;BME280;8384;47.996;7.786;2023-01-16T05:37:42;96669.56;;;5.32;49.76
16544;BME280;8384;47.996;7.786;2023-01-16T05:40:09;96666.25;;;5.45;49.66
16544;BME280;8384;47.996;7.786;2023-01-16T05:42:35;96656.03;;;5.32;49.10
16544;BME280;8384;47.996;7.786;2023-01-16T05:45:00;96618.63;;;5.34;48.30
16544;BME280;8384;47.996;7.786;2023-01-16T05:47:25;96634.72;;;5.60;48.32
16544;BME280;8384;47.996;7.786;2023-01-16T05:49:51;96588.81;;;5.39;48.25
16544;BME280;8384;47.996;7.786;2023-01-16T05:52:16;96613.66;;;5.51;47.83
16544;BME280;8384;47.996;7.786;2023-01-16T05:54:41;96603.59;;;5.57;48.03
16544;BME280;8384;47.996;7.786;2023-01-16T05:57:06;96597.31;;;5.62;47.95
16544;BME280;8384;47.996;7.786;2023-01-16T05:59:32;96569.78;;;5.49;48.12
16544;BME280;8384;47.996;7.786;2023-01-16T06:01:57;96568.03;;;5.64;48.11
16544;BME280;8384;47.996;7.786;2023-01-16T06:04:23;96577.22;;;5.68;47.37
16544;BME280;8384;47.996;7.786;2023-01-16T06:06:48;96552.03;;;5.67;48.01
16544;BME280;8384;47.996;7.786;2023-01-16T06:09:14;96533.47;;;5.50;47.70
16544;BME280;8384;47.996;7.786;2023-01-16T06:11:39;96536.13;;;5.55;47.69
16544;BME280;8384;47.996;7.786;2023-01-16T06:14:04;96541.22;;;5.62;47.74
16544;BME280;8384;47.996;7.786;2023-01-16T06:16:31;96532.16;;;5.77;47.17
16544;BME280;8384;47.996;7.786;2023-01-16T06:18:56;96521.16;;;5.63;47.27
16544;BME280;8384;47.996;7.786;2023-01-16T06:21:22;96515.22;;;5.61;47.41
16544;BME280;8384;47.996;7.786;2023-01-16T06:23:47;96496.09;;;5.47;47.19
16544;BME280;8384;47.996;7.786;2023-01-16T06:26:12;96507.06;;;5.66;46.88
16544;BME280;8384;47.996;7.786;2023-01-16T06:28:38;96505.44;;;5.65;47.46
16544;BME280;8384;47.996;7.786;2023-01-16T06:31:05;96495.88;;;5.73;47.30
16544;BME280;8384;47.996;7.786;2023-01-16T06:33:30;96472.78;;;5.76;46.65
16544;BME280;8384;47.996;7.786;2023-01-16T06:35:56;96472.47;;;5.82;45.45
16544;BME280;8384;47.996;7.786;2023-01-16T06:38:21;96463.34;;;5.97;44.73
16544;BME280;8384;47.996;7.786;2023-01-16T06:40:47;96455.50;;;6.01;44.59
16544;BME280;8384;47.996;7.786;2023-01-16T06:43:12;96448.56;;;6.14;44.77
16544;BME280;8384;47.996;7.786;2023-01-16T06:45:38;96440.19;;;6.10;44.72
16544;BME280;8384;47.996;7.786;2023-01-16T06:48:03;96446.38;;;6.16;44.80
16544;BME280;8384;47.996;7.786;2023-01-16T06:50:28;96421.06;;;5.96;45.38
16544;BME280;8384;47.996;7.786;2023-01-16T06:52:54;96400.59;;;6.09;44.22
16544;BME280;8384;47.996;7.786;2023-01-16T06:55:19;96423.28;;;6.19;44.24
16544;BME280;8384;47.996;7.786;2023-01-16T06:57:44;96425.00;;;6.34;44.18
16544;BME280;8384;47.996;7.786;2023-01-16T07:00:10;96396.97;;;6.19;44.48
16544;BME280;8384;47.996;7.786;2023-01-16T07:02:36;96410.44;;;6.24;44.06
16544;BME280;8384;47.996;7.786;2023-01-16T07:05:06;96381.56;;;6.14;44.35
16544;BME280;8384;47.996;7.786;2023-01-16T07:07:31;96391.03;;;6.17;44.52
16544;BME280;8384;47.996;7.786;2023-01-16T07:09:57;96399.63;;;6.43;43.21
16544;BME280;8384;47.996;7.786;2023-01-16T07:12:22;96388.94;;;6.33;44.01
16544;BME280;8384;47.996;7.786;2023-01-16T07:14:47;96383.72;;;6.56;43.25
16544;BME280;8384;47.996;7.786;2023-01-16T07:17:31;96381.44;;;6.44;43.40
16544;BME280;8384;47.996;7.786;2023-01-16T07:20:15;96351.66;;;6.39;43.39
16544;BME280;8384;47.996;7.786;2023-01-16T07:22:59;96377.84;;;6.68;42.52
16544;BME280;8384;47.996;7.786;2023-01-16T07:25:32;96374.84;;;6.69;42.52
16544;BME280;8384;47.996;7.786;2023-01-16T07:27:59;96362.66;;;6.67;42.84
16544;BME280;8384;47.996;7.786;2023-01-16T07:30:25;96348.00;;;6.49;42.74
16544;BME280;8384;47.996;7.786;2023-01-16T07:32:50;96338.75;;;6.50;42.80
16544;BME280;8384;47.996;7.786;2023-01-16T07:35:16;96337.28;;;6.38;43.00
16544;BME280;8384;47.996;7.786;2023-01-16T07:37:41;96340.22;;;6.42;42.92
16544;BME280;8384;47.996;7.786;2023-01-16T07:40:08;96368.03;;;6.72;42.85
16544;BME280;8384;47.996;7.786;2023-01-16T07:42:33;96369.13;;;6.71;43.02
16544;BME280;8384;47.996;7.786;2023-01-16T07:44:58;96362.53;;;6.58;43.79
16544;BME280;8384;47.996;7.786;2023-01-16T07:47:24;96342.06;;;6.47;42.78
16544;BME280;8384;47.996;7.786;2023-01-16T07:49:49;96369.78;;;6.63;43.56
16544;BME280;8384;47.996;7.786;2023-01-16T07:52:14;96363.84;;;6.60;43.22
16544;BME280;8384;47.996;7.786;2023-01-16T07:54:42;96355.97;;;6.78;42.53
16544;BME280;8384;47.996;7.786;2023-01-16T07:57:07;96343.94;;;6.65;42.60
16544;BME280;8384;47.996;7.786;2023-01-16T07:59:32;96352.44;;;6.78;42.26
16544;BME280;8384;47.996;7.786;2023-01-16T08:01:57;96341.22;;;6.84;42.92
16544;BME280;8384;47.996;7.786;2023-01-16T08:04:23;96317.84;;;6.50;43.19
16544;BME280;8384;47.996;7.786;2023-01-16T08:06:48;96363.25;;;6.83;42.96
16544;BME280;8384;47.996;7.786;2023-01-16T08:09:13;96298.34;;;6.48;43.27
16544;BME280;8384;47.996;7.786;2023-01-16T08:11:39;96314.44;;;6.78;43.21
16544;BME280;8384;47.996;7.786;2023-01-16T08:14:06;96325.50;;;6.81;43.85
16544;BME280;8384;47.996;7.786;2023-01-16T08:16:32;96301.19;;;6.90;42.87
16544;BME280;8384;47.996;7.786;2023-01-16T08:18:57;96319.84;;;6.97;43.36
16544;BME280;8384;47.996;7.786;2023-01-16T08:21:23;96323.78;;;7.04;42.58
16544;BME280;8384;47.996;7.786;2023-01-16T08:23:48;96325.31;;;7.11;42.67
16544;BME280;8384;47.996;7.786;2023-01-16T08:26:14;96309.13;;;7.19;43.62
16544;BME280;8384;47.996;7.786;2023-01-16T08:28:39;96341.78;;;6.81;45.88
16544;BME280;8384;47.996;7.786;2023-01-16T08:31:07;96341.47;;;6.69;48.00
16544;BME280;8384;47.996;7.786;2023-01-16T08:33:37;96318.91;;;6.35;48.46
16544;BME280;8384;47.996;7.786;2023-01-16T08:36:04;96342.78;;;6.52;49.56
16544;BME280;8384;47.996;7.786;2023-01-16T08:38:30;96354.31;;;6.44;50.54
16544;BME280;8384;47.996;7.786;2023-01-16T08:40:56;96353.72;;;6.47;51.71
16544;BME280;8384;47.996;7.786;2023-01-16T08:43:21;96340.94;;;6.28;51.37
16544;BME280;8384;47.996;7.786;2023-01-16T08:46:16;96345.00;;;6.31;52.44
16544;BME280;8384;47.996;7.786;2023-01-16T08:49:02;96322.84;;;5.99;54.85
16544;BME280;8384;47.996;7.786;2023-01-16T08:51:47;96329.94;;;6.00;55.61
16544;BME280;8384;47.996;7.786;2023-01-16T08:54:12;96321.25;;;5.98;54.54
16544;BME280;8384;47.996;7.786;2023-01-16T08:56:37;96314.31;;;5.92;55.82
16544;BME280;8384;47.996;7.786;2023-01-16T08:59:10;96295.53;;;5.96;55.48
16544;BME280;8384;47.996;7.786;2023-01-16T09:01:38;96298.88;;;5.68;56.54
16544;BME280;8384;47.996;7.786;2023-01-16T09:04:05;96308.94;;;5.87;57.07
16544;BME280;8384;47.996;7.786;2023-01-16T09:06:30;96299.72;;;5.64;57.45
16544;BME280;8384;47.996;7.786;2023-01-16T09:08:56;96302.75;;;5.62;57.98
16544;BME280;8384;47.996;7.786;2023-01-16T09:11:21;96317.75;;;5.74;57.46
16544;BME280;8384;47.996;7.786;2023-01-16T09:14:05;96312.19;;;5.65;56.96
16544;BME280;8384;47.996;7.786;2023-01-16T09:16:30;96304.00;;;5.70;57.26
16544;BME280;8384;47.996;7.786;2023-01-16T09:18:56;96298.81;;;5.25;58.62
16544;BME280;8384;47.996;7.786;2023-01-16T09:21:21;96294.78;;;5.47;59.27
16544;BME280;8384;47.996;7.786;2023-01-16T09:23:50;96312.75;;;5.62;59.07
16544;BME280;8384;47.996;7.786;2023-01-16T09:26:16;96291.53;;;5.45;61.01
16544;BME280;8384;47.996;7.786;2023-01-16T09:28:41;96302.72;;;5.38;61.68
16544;BME280;8384;47.996;7.786;2023-01-16T09:31:06;96287.06;;;5.35;63.12
16544;BME280;8384;47.996;7.786;2023-01-16T09:33:32;96300.59;;;5.35;64.76
16544;BME280;8384;47.996;7.786;2023-01-16T09:35:57;96267.22;;;5.15;64.16
16544;BME280;8384;47.996;7.786;2023-01-16T09:38:22;96262.50;;;5.26;66.01
16544;BME280;8384;47.996;7.786;2023-01-16T09:40:52;96276.75;;;5.37;65.96
16544;BME280;8384;47.996;7.786;2023-01-16T09:43:32;96257.38;;;5.00;66.28
16544;BME280;8384;47.996;7.786;2023-01-16T09:46:08;96281.97;;;5.28;67.44
16544;BME280;8384;47.996;7.786;2023-01-16T09:51:28;96267.78;;;4.88;69.87
16544;BME280;8384;47.996;7.786;2023-01-16T09:54:01;96236.31;;;4.68;70.45
16544;BME280;8384;47.996;7.786;2023-01-16T09:56:49;96261.78;;;4.91;71.67
16544;BME280;8384;47.996;7.786;2023-01-16T09:59:41;96263.72;;;4.85;72.58
16544;BME280;8384;47.996;7.786;2023-01-16T10:02:31;96255.38;;;4.82;72.69
16544;BME280;8384;47.996;7.786;2023-01-16T10:04:58;96262.41;;;4.83;73.79
16544;BME280;8384;47.996;7.786;2023-01-16T10:07:50;96286.13;;;4.91;72.98
16544;BME280;8384;47.996;7.786;2023-01-16T10:10:44;96261.28;;;4.89;73.32
16544;BME280;8384;47.996;7.786;2023-01-16T10:16:00;96275.28;;;4.67;73.82
16544;BME280;8384;47.996;7.786;2023-01-16T10:18:37;96271.53;;;4.62;74.31
16544;BME280;8384;47.996;7.786;2023-01-16T10:21:17;96236.13;;;4.59;74.50
16544;BME280;8384;47.996;7.786;2023-01-16T10:24:01;96254.38;;;4.72;75.96
16544;BME280;8384;47.996;7.786;2023-01-16T10:26:29;96260.47;;;4.88;75.66
16544;BME280;8384;47.996;7.786;2023-01-16T10:31:48;96208.44;;;4.67;75.29
16544;BME280;8384;47.996;7.786;2023-01-16T10:34:20;96219.47;;;5.00;74.81
16544;BME280;8384;47.996;7.786;2023-01-16T10:36:51;96189.88;;;4.85;75.83
16544;BME280;8384;47.996;7.786;2023-01-16T10:39:19;96225.50;;;4.92;76.94
16544;BME280;8384;47.996;7.786;2023-01-16T10:41:55;96194.31;;;5.00;77.11
16544;BME280;8384;47.996;7.786;2023-01-16T10:44:50;96203.50;;;5.23;77.66
16544;BME280;8384;47.996;7.786;2023-01-16T10:47:37;96157.66;;;5.07;77.77
16544;BME280;8384;47.996;7.786;2023-01-16T10:50:23;96184.53;;;5.23;78.63
16544;BME280;8384;47.996;7.786;2023-01-16T10:52:50;96168.13;;;5.14;78.75
16544;BME280;8384;47.996;7.786;2023-01-16T10:55:16;96167.25;;;5.19;78.95
16544;BME280;8384;47.996;7.786;2023-01-16T10:57:48;96154.91;;;5.13;77.43
16544;BME280;8384;47.996;7.786;2023-01-16T11:00:19;96146.88;;;5.02;77.16
16544;BME280;8384;47.996;7.786;2023-01-16T11:02:47;96125.75;;;5.04;76.98
16544;BME280;8384;47.996;7.786;2023-01-16T11:05:31;96144.66;;;5.29;74.45
16544;BME280;8384;47.996;7.786;2023-01-16T11:08:12;96128.91;;;5.31;74.13
16544;BME280;8384;47.996;7.786;2023-01-16T11:10:42;96107.59;;;5.24;74.14
16544;BME280;8384;47.996;7.786;2023-01-16T11:13:13;96120.50;;;5.32;74.70
16544;BME280;8384;47.996;7.786;2023-01-16T11:16:04;96121.09;;;5.29;72.38
16544;BME280;8384;47.996;7.786;2023-01-16T11:18:52;96114.78;;;5.53;72.72
16544;BME280;8384;47.996;7.786;2023-01-16T11:21:27;96107.47;;;5.53;71.91
16544;BME280;8384;47.996;7.786;2023-01-16T11:24:00;96106.66;;;5.53;68.71
16544;BME280;8384;47.996;7.786;2023-01-16T11:26:27;96073.63;;;5.70;63.30
16544;BME280;8384;47.996;7.786;2023-01-16T11:28:54;96072.75;;;5.89;65.34
16544;BME280;8384;47.996;7.786;2023-01-16T11:31:27;96077.88;;;6.23;64.30
16544;BME280;8384;47.996;7.786;2023-01-16T11:34:02;96051.09;;;6.36;64.29
16544;BME280;8384;47.996;7.786;2023-01-16T11:36:32;96019.53;;;6.26;64.08
16544;BME280;8384;47.996;7.786;2023-01-16T11:38:59;96023.97;;;6.50;61.89
16544;BME280;8384;47.996;7.786;2023-01-16T11:41:32;96011.81;;;6.33;59.89
16544;BME280;8384;47.996;7.786;2023-01-16T11:47:15;96011.38;;;6.82;57.68
16544;BME280;8384;47.996;7.786;2023-01-16T11:49:46;96010.25;;;6.97;57.05
16544;BME280;8384;47.996;7.786;2023-01-16T11:52:13;96020.81;;;6.84;57.11
16544;BME280;8384;47.996;7.786;2023-01-16T11:54:39;96001.31;;;6.82;56.84
16544;BME280;8384;47.996;7.786;2023-01-16T12:02:41;96000.34;;;7.15;54.85
16544;BME280;8384;47.996;7.786;2023-01-16T12:17:15;95960.91;;;6.81;57.13
16544;BME280;8384;47.996;7.786;2023-01-16T12:25:38;95894.34;;;5.63;60.49
16544;BME280;8384;47.996;7.786;2023-01-16T12:28:20;95987.91;;;6.21;60.21
16544;BME280;8384;47.996;7.786;2023-01-16T12:31:08;95940.97;;;6.35;59.63
16544;BME280;8384;47.996;7.786;2023-01-16T12:34:18;95954.13;;;6.27;59.31
16544;BME280;8384;47.996;7.786;2023-01-16T12:39:48;95922.91;;;6.30;59.86
16544;BME280;8384;47.996;7.786;2023-01-16T12:42:42;95908.75;;;6.19;60.29
16544;BME280;8384;47.996;7.786;2023-01-16T12:45:44;95922.47;;;6.37;61.58
16544;BME280;8384;47.996;7.786;2023-01-16T12:54:05;95907.66;;;5.45;66.67
16544;BME280;8384;47.996;7.786;2023-01-16T12:59:30;95925.63;;;5.55;70.27
16544;BME280;8384;47.996;7.786;2023-01-16T13:02:30;95895.53;;;5.43;70.84
16544;BME280;8384;47.996;7.786;2023-01-16T13:04:59;95872.47;;;5.59;68.99
16544;BME280;8384;47.996;7.786;2023-01-16T13:07:31;95849.09;;;5.77;68.66
16544;BME280;8384;47.996;7.786;2023-01-16T13:10:16;95845.97;;;5.70;67.33
16544;BME280;8384;47.996;7.786;2023-01-16T13:13:03;95833.19;;;5.70;66.79
16544;BME280;8384;47.996;7.786;2023-01-16T13:16:15;95852.97;;;5.99;65.69
16544;BME280;8384;47.996;7.786;2023-01-16T13:21:41;95822.34;;;6.12;62.88
16544;BME280;8384;47.996;7.786;2023-01-16T13:24:15;95828.97;;;6.20;62.94
16544;BME280;8384;47.996;7.786;2023-01-16T13:26:51;95830.06;;;6.56;59.34
16544;BME280;8384;47.996;7.786;2023-01-16T13:29:25;95820.41;;;6.64;58.37
16544;BME280;8384;47.996;7.786;2023-01-16T13:31:55;95786.16;;;6.77;56.71
16544;BME280;8384;47.996;7.786;2023-01-16T13:34:39;95791.91;;;6.75;58.10
16544;BME280;8384;47.996;7.786;2023-01-16T13:37:27;95827.53;;;6.82;57.40
16544;BME280;8384;47.996;7.786;2023-01-16T13:40:06;95820.56;;;6.90;57.10
16544;BME280;8384;47.996;7.786;2023-01-16T13:42:37;95823.47;;;6.94;57.85
16544;BME280;8384;47.996;7.786;2023-01-16T13:45:16;95808.66;;;7.00;56.53
16544;BME280;8384;47.996;7.786;2023-01-16T13:48:02;95801.25;;;6.92;55.65
16544;BME280;8384;47.996;7.786;2023-01-16T13:50:30;95807.22;;;7.02;55.89
16544;BME280;8384;47.996;7.786;2023-01-16T13:53:00;95780.69;;;7.31;54.90
16544;BME280;8384;47.996;7.786;2023-01-16T13:55:33;95770.13;;;7.29;56.09
16544;BME280;8384;47.996;7.786;2023-01-16T14:00:33;95794.50;;;7.12;55.52
16544;BME280;8384;47.996;7.786;2023-01-16T14:03:10;95765.31;;;7.26;54.84
16544;BME280;8384;47.996;7.786;2023-01-16T14:05:44;95807.91;;;7.08;55.04
16544;BME280;8384;47.996;7.786;2023-01-16T14:11:40;95831.56;;;6.85;57.77
16544;BME280;8384;47.996;7.786;2023-01-16T14:17:11;95818.66;;;5.80;74.30
16544;BME280;8384;47.996;7.786;2023-01-16T14:19:41;95869.94;;;5.49;73.16
16544;BME280;8384;47.996;7.786;2023-01-16T14:22:21;95827.31;;;5.40;73.48
16544;BME280;8384;47.996;7.786;2023-01-16T14:24:50;95872.47;;;5.59;71.15
16544;BME280;8384;47.996;7.786;2023-01-16T14:27:19;95933.47;;;5.56;70.28
16544;BME280;8384;47.996;7.786;2023-01-16T14:29:56;95862.09;;;5.33;75.08
16544;BME280;8384;47.996;7.786;2023-01-16T14:32:26;95853.09;;;5.05;75.93
16544;BME280;8384;47.996;7.786;2023-01-16T14:37:25;95893.88;;;4.94;80.75
16544;BME280;8384;47.996;7.786;2023-01-16T14:40:04;95902.84;;;4.76;84.01
16544;BME280;8384;47.996;7.786;2023-01-16T14:42:47;95904.47;;;4.58;87.47
16544;BME280;8384;47.996;7.786;2023-01-16T14:45:33;95863.88;;;4.39;89.30
16544;BME280;8384;47.996;7.786;2023-01-16T14:56:47;95844.88;;;4.44;85.72
16544;BME280;8384;47.996;7.786;2023-01-16T14:59:24;95845.66;;;4.63;85.87
16544;BME280;8384;47.996;7.786;2023-01-16T15:02:00;95872.56;;;4.74;84.43
16544;BME280;8384;47.996;7.786;2023-01-16T15:04:56;95846.00;;;4.76;81.66
16544;BME280;8384;47.996;7.786;2023-01-16T15:07:58;95881.31;;;4.85;81.14
16544;BME280;8384;47.996;7.786;2023-01-16T15:10:40;95868.81;;;4.89;80.65
16544;BME280;8384;47.996;7.786;2023-01-16T15:13:15;95872.50;;;4.93;81.74
16544;BME280;8384;47.996;7.786;2023-01-16T15:15:47;95902.97;;;4.85;80.50
16544;BME280;8384;47.996;7.786;2023-01-16T15:18:16;95846.97;;;4.66;81.85
16544;BME280;8384;47.996;7.786;2023-01-16T15:21:02;95880.75;;;4.49;85.19
16544;BME280;8384;47.996;7.786;2023-01-16T15:23:47;95852.03;;;4.34;86.62
16544;BME280;8384;47.996;7.786;2023-01-16T15:26:20;95856.56;;;4.39;86.44
16544;BME280;8384;47.996;7.786;2023-01-16T15:31:39;95883.97;;;4.32;86.72